Time,TemperatureF,DewpointF,PressureIn,WindDirection,WindDirectionDegrees,WindSpeedMPH,WindSpeedGustMPH,Humidity,HourlyPrecipIn,Conditions,Clouds,dailyrainin,SoftwareType,DateUTC
2013-03-11 00:00:00,37.5,33.7,30.28,South,175,0.0,0.0,86,0.00,,,0.00,Wunderground v.1.15,2013-03-11 04:00:00,
2013-03-11 00:05:00,37.6,33.8,30.28,South,175,0.0,0.0,86,0.00,,,0.00,Wunderground v.1.15,2013-03-11 04:05:00,
2013-03-11 00:10:00,37.6,33.8,30.28,South,175,0.0,0.0,86,0.00,,,0.00,Wunderground v.1.15,2013-03-11 04:10:00,
2013-03-11 00:15:00,37.8,34.0,30.28,South,175,0.0,0.0,86,0.00,,,0.00,Wunderground v.1.15,2013-03-11 04:15:00,
2013-03-11 00:25:00,37.9,34.1,30.28,South,175,0.0,0.0,86,0.00,,,0.00,Wunderground v.1.15,2013-03-11 04:25:00,
2013-03-11 00:35:00,38.0,34.5,30.27,South,175,0.0,1.0,87,0.00,,,0.00,Wunderground v.1.15,2013-03-11 04:35:00,
2013-03-11 00:50:00,38.2,34.4,30.28,South,175,0.0,0.0,86,0.00,,,0.00,Wunderground v.1.15,2013-03-11 04:50:00,
2013-03-11 00:55:00,38.2,34.4,30.28,South,175,0.0,0.0,86,0.00,,,0.00,Wunderground v.1.15,2013-03-11 04:55:00,
2013-03-11 01:05:00,38.0,34.2,30.27,South,175,0.0,1.0,86,0.00,,,0.00,Wunderground v.1.15,2013-03-11 05:05:00,
2013-03-11 01:15:00,38.0,34.2,30.27,South,175,0.0,0.0,86,0.00,,,0.00,Wunderground v.1.15,2013-03-11 05:15:00,
2013-03-11 01:25:00,38.0,34.5,30.25,South,175,0.0,0.0,87,0.00,,,0.00,Wunderground v.1.15,2013-03-11 05:25:00,
2013-03-11 01:35:00,38.3,34.8,30.26,South,175,1.0,1.0,87,0.00,,,0.00,Wunderground v.1.15,2013-03-11 05:35:00,
2013-03-11 01:45:00,38.3,34.5,30.26,South,175,0.0,1.0,86,0.00,,,0.00,Wunderground v.1.15,2013-03-11 05:45:00,
2013-03-11 01:55:00,38.5,34.7,30.26,South,175,0.0,0.0,86,0.00,,,0.00,Wunderground v.1.15,2013-03-11 05:55:00,
2013-03-11 02:05:00,38.6,35.1,30.25,South,175,0.0,0.0,87,0.00,,,0.00,Wunderground v.1.15,2013-03-11 06:05:00,
2013-03-11 02:15:00,38.6,34.8,30.25,South,175,0.0,0.0,86,0.00,,,0.00,Wunderground v.1.15,2013-03-11 06:15:00,
2013-03-11 02:25:00,38.8,35.0,30.25,South,175,0.0,0.0,86,0.00,,,0.00,Wunderground v.1.15,2013-03-11 06:25:00,
2013-03-11 02:35:00,38.9,35.1,30.25,South,175,0.0,0.0,86,0.00,,,0.00,Wunderground v.1.15,2013-03-11 06:35:00,
2013-03-11 02:45:00,38.9,35.1,30.25,South,175,0.0,0.0,86,0.00,,,0.00,Wunderground v.1.15,2013-03-11 06:45:00,
2013-03-11 02:55:00,39.1,35.3,30.25,South,175,0.0,1.0,86,0.00,,,0.00,Wunderground v.1.15,2013-03-11 06:55:00,
2013-03-11 03:00:00,39.1,35.3,30.25,South,175,0.0,0.0,86,0.00,,,0.00,Wunderground v.1.15,2013-03-11 07:00:00,
2013-03-11 03:06:00,39.1,35.3,30.24,South,175,0.0,0.0,86,0.00,,,0.00,Wunderground v.1.15,2013-03-11 07:06:00,
2013-03-11 03:15:00,39.2,35.4,30.24,South,175,0.0,0.0,86,0.00,,,0.00,Wunderground v.1.15,2013-03-11 07:15:00,
2013-03-11 03:25:00,39.2,35.4,30.23,South,175,0.0,0.0,86,0.00,,,0.00,Wunderground v.1.15,2013-03-11 07:25:00,
2013-03-11 03:35:00,39.3,35.5,30.23,South,175,0.0,0.0,86,0.00,,,0.00,Wunderground v.1.15,2013-03-11 07:35:00,
2013-03-11 03:45:00,39.3,35.5,30.23,South,175,0.0,1.0,86,0.00,,,0.00,Wunderground v.1.15,2013-03-11 07:45:00,
2013-03-11 03:55:00,39.5,35.7,30.23,South,175,0.0,0.0,86,0.00,,,0.00,Wunderground v.1.15,2013-03-11 07:55:00,
2013-03-11 04:05:00,39.3,35.5,30.23,South,175,0.0,0.0,86,0.00,,,0.00,Wunderground v.1.15,2013-03-11 08:05:00,
2013-03-11 04:15:00,39.5,35.4,30.23,South,175,0.0,0.0,85,0.00,,,0.00,Wunderground v.1.15,2013-03-11 08:15:00,
2013-03-11 04:25:00,39.5,35.4,30.22,South,175,0.0,0.0,85,0.00,,,0.00,Wunderground v.1.15,2013-03-11 08:25:00,
2013-03-11 04:35:00,39.6,35.5,30.22,South,175,0.0,0.0,85,0.00,,,0.00,Wunderground v.1.15,2013-03-11 08:35:00,
2013-03-11 04:45:00,39.8,35.7,30.22,South,175,0.0,0.0,85,0.00,,,0.00,Wunderground v.1.15,2013-03-11 08:45:00,
2013-03-11 04:55:00,39.8,35.7,30.22,South,175,0.0,0.0,85,0.00,,,0.00,Wunderground v.1.15,2013-03-11 08:55:00,
2013-03-11 05:05:00,39.9,35.8,30.21,South,175,0.0,0.0,85,0.00,,,0.00,Wunderground v.1.15,2013-03-11 09:05:00,
2013-03-11 05:15:00,39.8,35.7,30.21,South,175,0.0,0.0,85,0.00,,,0.00,Wunderground v.1.15,2013-03-11 09:15:00,
2013-03-11 05:25:00,39.8,36.0,30.21,South,175,0.0,0.0,86,0.00,,,0.00,Wunderground v.1.15,2013-03-11 09:25:00,
2013-03-11 05:35:00,39.8,36.0,30.21,South,175,0.0,0.0,86,0.00,,,0.00,Wunderground v.1.15,2013-03-11 09:35:00,
2013-03-11 05:45:00,39.9,36.1,30.21,South,175,0.0,0.0,86,0.00,,,0.00,Wunderground v.1.15,2013-03-11 09:45:00,
2013-03-11 05:55:00,39.9,36.1,30.21,South,175,0.0,0.0,86,0.00,,,0.00,Wunderground v.1.15,2013-03-11 09:55:00,
2013-03-11 06:06:00,39.9,36.1,30.20,South,175,0.0,0.0,86,0.00,,,0.00,Wunderground v.1.15,2013-03-11 10:06:00,
2013-03-11 06:15:00,39.9,36.1,30.20,South,175,0.0,0.0,86,0.00,,,0.00,Wunderground v.1.15,2013-03-11 10:15:00,
2013-03-11 06:25:00,40.1,36.5,30.20,South,175,0.0,0.0,87,0.00,,,0.00,Wunderground v.1.15,2013-03-11 10:25:00,
2013-03-11 06:35:00,40.1,36.5,30.20,South,175,0.0,0.0,87,0.00,,,0.00,Wunderground v.1.15,2013-03-11 10:35:00,
2013-03-11 06:45:00,40.1,36.5,30.20,South,175,0.0,0.0,87,0.00,,,0.00,Wunderground v.1.15,2013-03-11 10:45:00,
2013-03-11 06:55:00,40.1,36.2,30.20,South,175,0.0,0.0,86,0.00,,,0.00,Wunderground v.1.15,2013-03-11 10:55:00,
2013-03-11 07:05:00,40.1,36.2,30.20,South,175,0.0,0.0,86,0.00,,,0.00,Wunderground v.1.15,2013-03-11 11:05:00,
2013-03-11 07:15:00,40.1,36.2,30.20,South,175,0.0,0.0,86,0.00,,,0.00,Wunderground v.1.15,2013-03-11 11:15:00,
2013-03-11 07:25:00,40.2,36.3,30.20,South,175,0.0,0.0,86,0.00,,,0.00,Wunderground v.1.15,2013-03-11 11:25:00,
2013-03-11 07:35:00,40.2,36.3,30.19,South,175,0.0,0.0,86,0.00,,,0.00,Wunderground v.1.15,2013-03-11 11:35:00,
2013-03-11 07:45:00,40.3,36.1,30.19,South,175,0.0,0.0,85,0.00,,,0.00,Wunderground v.1.15,2013-03-11 11:45:00,
2013-03-11 07:55:00,40.5,36.3,30.19,South,175,0.0,0.0,85,0.00,,,0.00,Wunderground v.1.15,2013-03-11 11:55:00,
2013-03-11 08:06:00,40.8,36.6,30.19,South,175,0.0,0.0,85,0.00,,,0.00,Wunderground v.1.15,2013-03-11 12:06:00,
2013-03-11 08:15:00,41.3,37.1,30.19,South,175,0.0,1.0,85,0.00,,,0.00,Wunderground v.1.15,2013-03-11 12:15:00,
2013-03-11 08:25:00,41.8,37.6,30.20,South,169,1.0,1.0,85,0.00,,,0.00,Wunderground v.1.15,2013-03-11 12:25:00,
2013-03-11 08:35:00,41.9,37.7,30.20,SE,135,1.0,1.0,85,0.00,,,0.00,Wunderground v.1.15,2013-03-11 12:35:00,
2013-03-11 08:40:00,42.1,37.9,30.20,SE,128,1.0,1.0,85,0.00,,,0.00,Wunderground v.1.15,2013-03-11 12:40:00,
2013-03-11 08:45:00,42.2,38.0,30.20,SE,126,0.0,1.0,85,0.00,,,0.00,Wunderground v.1.15,2013-03-11 12:45:00,
2013-03-11 08:55:00,42.3,38.1,30.21,SE,128,1.0,2.0,85,0.00,,,0.00,Wunderground v.1.15,2013-03-11 12:55:00,
2013-03-11 09:05:00,42.5,38.0,30.21,SE,128,0.0,1.0,84,0.00,,,0.00,Wunderground v.1.15,2013-03-11 13:05:00,
2013-03-11 09:15:00,42.9,38.4,30.21,SE,128,0.0,1.0,84,0.00,,,0.00,Wunderground v.1.15,2013-03-11 13:15:00,
2013-03-11 09:25:00,43.8,39.3,30.21,SE,128,0.0,0.0,84,0.00,,,0.00,Wunderground v.1.15,2013-03-11 13:25:00,
2013-03-11 09:35:00,44.9,39.7,30.21,SSW,205,1.0,1.0,82,0.00,,,0.00,Wunderground v.1.15,2013-03-11 13:35:00,
2013-03-11 09:45:00,45.2,39.7,30.21,SSE,165,1.0,1.0,81,0.00,,,0.00,Wunderground v.1.15,2013-03-11 13:45:00,
2013-03-11 09:55:00,45.5,40.0,30.22,SSE,165,1.0,2.0,81,0.00,,,0.00,Wunderground v.1.15,2013-03-11 13:55:00,
2013-03-11 10:05:00,46.1,40.6,30.21,SSE,165,1.0,1.0,81,0.00,,,0.00,Wunderground v.1.15,2013-03-11 14:05:00,
2013-03-11 10:15:00,46.5,40.7,30.21,SSE,147,1.0,1.0,80,0.00,,,0.00,Wunderground v.1.15,2013-03-11 14:15:00,
2013-03-11 10:25:00,47.4,40.9,30.21,WSW,243,1.0,2.0,78,0.00,,,0.00,Wunderground v.1.15,2013-03-11 14:25:00,
2013-03-11 10:35:00,48.0,41.5,30.21,SSE,166,3.0,3.0,78,0.00,,,0.00,Wunderground v.1.15,2013-03-11 14:35:00,
2013-03-11 10:45:00,48.8,41.6,30.21,WSW,238,4.0,4.0,76,0.00,,,0.00,Wunderground v.1.15,2013-03-11 14:45:00,
2013-03-11 10:50:00,49.1,41.5,30.21,SW,214,4.0,6.0,75,0.00,,,0.00,Wunderground v.1.15,2013-03-11 14:50:00,
2013-03-11 10:55:00,49.1,41.5,30.21,SW,235,4.0,6.0,75,0.00,,,0.00,Wunderground v.1.15,2013-03-11 14:55:00,
2013-03-11 11:05:00,49.4,41.8,30.20,South,175,3.0,4.0,75,0.00,,,0.00,Wunderground v.1.15,2013-03-11 15:05:00,
2013-03-11 11:15:00,49.5,41.9,30.20,SW,218,4.0,6.0,75,0.00,,,0.00,Wunderground v.1.15,2013-03-11 15:15:00,
2013-03-11 11:25:00,49.9,41.9,30.19,SW,223,3.0,4.0,74,0.00,,,0.00,Wunderground v.1.15,2013-03-11 15:25:00,
2013-03-11 11:35:00,49.6,41.3,30.18,South,184,2.0,2.0,73,0.00,,,0.00,Wunderground v.1.15,2013-03-11 15:35:00,
2013-03-11 11:45:00,49.5,41.6,30.18,South,178,3.0,8.0,74,0.00,,,0.00,Wunderground v.1.15,2013-03-11 15:45:00,
2013-03-11 11:55:00,49.6,41.7,30.18,South,176,2.0,4.0,74,0.00,,,0.00,Wunderground v.1.15,2013-03-11 15:55:00,
2013-03-11 12:05:00,50.8,42.5,30.19,SSE,162,2.0,2.0,73,0.00,,,0.00,Wunderground v.1.15,2013-03-11 16:05:00,
2013-03-11 12:15:00,51.0,42.3,30.19,SW,236,3.0,3.0,72,0.00,,,0.00,Wunderground v.1.15,2013-03-11 16:15:00,
2013-03-11 12:25:00,51.0,41.9,30.19,SW,228,3.0,3.0,71,0.00,,,0.00,Wunderground v.1.15,2013-03-11 16:25:00,
2013-03-11 12:35:00,51.9,42.8,30.18,West,261,3.0,4.0,71,0.00,,,0.00,Wunderground v.1.15,2013-03-11 16:35:00,
2013-03-11 12:45:00,52.6,42.3,30.18,WSW,257,4.0,7.0,68,0.00,,,0.00,Wunderground v.1.15,2013-03-11 16:45:00,
2013-03-11 12:55:00,53.2,42.1,30.17,SW,214,4.0,4.0,66,0.00,,,0.00,Wunderground v.1.15,2013-03-11 16:55:00,
2013-03-11 13:10:00,52.9,41.8,30.17,South,170,3.0,3.0,66,0.00,,,0.00,Wunderground v.1.15,2013-03-11 17:10:00,
2013-03-11 13:15:00,53.3,43.0,30.17,SW,216,3.0,3.0,68,0.00,,,0.00,Wunderground v.1.15,2013-03-11 17:15:00,
2013-03-11 13:20:00,53.3,43.0,30.16,ESE,118,3.0,4.0,68,0.00,,,0.00,Wunderground v.1.15,2013-03-11 17:20:00,
2013-03-11 13:25:00,53.5,42.4,30.16,SSE,157,3.0,4.0,66,0.00,,,0.00,Wunderground v.1.15,2013-03-11 17:25:00,
2013-03-11 13:35:00,53.9,42.4,30.15,SSE,153,3.0,3.0,65,0.00,,,0.00,Wunderground v.1.15,2013-03-11 17:35:00,
2013-03-11 13:45:00,53.3,42.2,30.15,SSW,200,5.0,5.0,66,0.00,,,0.00,Wunderground v.1.15,2013-03-11 17:45:00,
2013-03-11 13:55:00,53.8,42.7,30.15,SW,215,4.0,6.0,66,0.00,,,0.00,Wunderground v.1.15,2013-03-11 17:55:00,
2013-03-11 14:06:00,53.3,43.0,30.14,East,100,4.0,4.0,68,0.00,,,0.00,Wunderground v.1.15,2013-03-11 18:06:00,
2013-03-11 14:15:00,52.9,42.6,30.14,South,178,4.0,4.0,68,0.00,,,0.00,Wunderground v.1.15,2013-03-11 18:15:00,
2013-03-11 14:25:00,53.3,42.6,30.14,SW,215,4.0,4.0,67,0.00,,,0.00,Wunderground v.1.15,2013-03-11 18:25:00,
2013-03-11 14:35:00,53.5,43.2,30.14,SE,132,3.0,6.0,68,0.00,,,0.00,Wunderground v.1.15,2013-03-11 18:35:00,
2013-03-11 14:45:00,53.2,42.5,30.14,ESE,109,4.0,6.0,67,0.00,,,0.00,Wunderground v.1.15,2013-03-11 18:45:00,
2013-03-11 14:55:00,53.3,42.6,30.13,SSW,198,4.0,4.0,67,0.00,,,0.00,Wunderground v.1.15,2013-03-11 18:55:00,
2013-03-11 15:05:00,53.5,42.8,30.12,SSE,161,4.0,5.0,67,0.00,,,0.00,Wunderground v.1.15,2013-03-11 19:05:00,
2013-03-11 15:15:00,53.9,42.8,30.12,ESE,123,3.0,7.0,66,0.00,,,0.00,Wunderground v.1.15,2013-03-11 19:15:00,
2013-03-11 15:25:00,53.3,42.6,30.12,SSW,213,4.0,4.0,67,0.00,,,0.00,Wunderground v.1.15,2013-03-11 19:25:00,
2013-03-11 15:35:00,53.5,43.2,30.12,SSE,161,4.0,5.0,68,0.00,,,0.00,Wunderground v.1.15,2013-03-11 19:35:00,
2013-03-11 15:45:00,53.3,43.4,30.12,SSE,160,4.0,5.0,69,0.00,,,0.00,Wunderground v.1.15,2013-03-11 19:45:00,
2013-03-11 15:55:00,53.3,43.8,30.12,SSW,208,5.0,6.0,70,0.00,,,0.00,Wunderground v.1.15,2013-03-11 19:55:00,
2013-03-11 16:05:00,53.3,44.5,30.11,SSW,194,4.0,8.0,72,0.00,,,0.00,Wunderground v.1.15,2013-03-11 20:05:00,
2013-03-11 16:15:00,53.3,44.9,30.11,East,101,4.0,6.0,73,0.00,,,0.00,Wunderground v.1.15,2013-03-11 20:15:00,
2013-03-11 16:25:00,52.6,44.2,30.10,SSE,157,4.0,4.0,73,0.00,,,0.00,Wunderground v.1.15,2013-03-11 20:25:00,
2013-03-11 16:35:00,52.3,44.3,30.10,SSE,155,5.0,5.0,74,0.00,,,0.00,Wunderground v.1.15,2013-03-11 20:35:00,
2013-03-11 16:45:00,52.2,44.5,30.10,South,181,5.0,6.0,75,0.00,,,0.00,Wunderground v.1.15,2013-03-11 20:45:00,
2013-03-11 16:55:00,52.0,44.3,30.10,SSE,149,4.0,5.0,75,0.00,,,0.00,Wunderground v.1.15,2013-03-11 20:55:00,
2013-03-11 17:05:00,51.6,44.3,30.09,South,173,6.0,6.0,76,0.00,,,0.00,Wunderground v.1.15,2013-03-11 21:05:00,
2013-03-11 17:15:00,51.6,44.3,30.09,West,268,4.0,5.0,76,0.00,,,0.00,Wunderground v.1.15,2013-03-11 21:15:00,
2013-03-11 17:25:00,51.6,44.3,30.10,SSW,195,5.0,9.0,76,0.00,,,0.00,Wunderground v.1.15,2013-03-11 21:25:00,
2013-03-11 17:35:00,51.4,44.4,30.09,SSE,151,5.0,6.0,77,0.00,,,0.00,Wunderground v.1.15,2013-03-11 21:35:00,
2013-03-11 17:45:00,51.3,44.7,30.09,ESE,112,4.0,5.0,78,0.00,,,0.00,Wunderground v.1.15,2013-03-11 21:45:00,
2013-03-11 17:55:00,51.3,44.7,30.09,South,175,4.0,4.0,78,0.00,,,0.00,Wunderground v.1.15,2013-03-11 21:55:00,
2013-03-11 18:05:00,51.3,44.7,30.09,SSW,196,4.0,4.0,78,0.00,,,0.00,Wunderground v.1.15,2013-03-11 22:05:00,
2013-03-11 18:15:00,51.1,44.5,30.09,South,171,5.0,6.0,78,0.00,,,0.00,Wunderground v.1.15,2013-03-11 22:15:00,
2013-03-11 18:25:00,51.1,44.8,30.08,SSE,158,3.0,5.0,79,0.00,,,0.00,Wunderground v.1.15,2013-03-11 22:25:00,
2013-03-11 18:35:00,51.0,44.7,30.08,South,171,3.0,5.0,79,0.00,,,0.00,Wunderground v.1.15,2013-03-11 22:35:00,
2013-03-11 18:45:00,50.8,44.9,30.08,SW,223,4.0,5.0,80,0.00,,,0.00,Wunderground v.1.15,2013-03-11 22:45:00,
2013-03-11 18:55:00,50.7,44.8,30.08,SSW,192,4.0,5.0,80,0.00,,,0.00,Wunderground v.1.15,2013-03-11 22:55:00,
2013-03-11 19:05:00,50.5,44.9,30.08,SSW,203,3.0,3.0,81,0.00,,,0.00,Wunderground v.1.15,2013-03-11 23:05:00,
2013-03-11 19:15:00,50.5,44.9,30.08,South,176,2.0,3.0,81,0.00,,,0.00,Wunderground v.1.15,2013-03-11 23:15:00,
2013-03-11 19:25:00,50.5,45.2,30.08,SSE,162,2.0,5.0,82,0.00,,,0.00,Wunderground v.1.15,2013-03-11 23:25:00,
2013-03-11 19:35:00,50.5,45.2,30.08,South,170,3.0,3.0,82,0.00,,,0.00,Wunderground v.1.15,2013-03-11 23:35:00,
2013-03-11 19:45:00,50.5,45.5,30.08,SSE,165,3.0,6.0,83,0.00,,,0.00,Wunderground v.1.15,2013-03-11 23:45:00,
2013-03-11 19:55:00,50.2,45.2,30.08,SSE,166,3.0,3.0,83,0.00,,,0.00,Wunderground v.1.15,2013-03-11 23:55:00,
2013-03-11 20:06:00,49.9,45.3,30.08,SW,236,3.0,9.0,84,0.00,,,0.00,Wunderground v.1.15,2013-03-12 00:06:00,
2013-03-11 20:15:00,49.9,45.6,30.08,SW,217,2.0,4.0,85,0.00,,,0.00,Wunderground v.1.15,2013-03-12 00:15:00,
2013-03-11 20:25:00,49.9,45.6,30.09,South,183,4.0,4.0,85,0.00,,,0.00,Wunderground v.1.15,2013-03-12 00:25:00,
2013-03-11 20:35:00,49.9,45.9,30.09,South,180,2.0,4.0,86,0.00,,,0.00,Wunderground v.1.15,2013-03-12 00:35:00,
2013-03-11 20:45:00,49.9,45.9,30.09,SSE,155,2.0,2.0,86,0.00,,,0.00,Wunderground v.1.15,2013-03-12 00:45:00,
2013-03-11 20:55:00,50.1,46.1,30.09,South,188,3.0,3.0,86,0.00,,,0.00,Wunderground v.1.15,2013-03-12 00:55:00,
2013-03-11 21:06:00,50.2,46.2,30.08,South,182,3.0,6.0,86,0.00,,,0.00,Wunderground v.1.15,2013-03-12 01:06:00,
2013-03-11 21:15:00,50.2,46.2,30.08,SSE,167,4.0,5.0,86,0.00,,,0.00,Wunderground v.1.15,2013-03-12 01:15:00,
2013-03-11 21:25:00,50.1,46.4,30.06,SSE,163,5.0,6.0,87,0.00,,,0.00,Wunderground v.1.15,2013-03-12 01:25:00,
2013-03-11 21:35:00,50.1,46.4,30.06,SE,146,3.0,5.0,87,0.00,,,0.00,Wunderground v.1.15,2013-03-12 01:35:00,
2013-03-11 21:45:00,49.9,46.2,30.06,SSE,156,1.0,2.0,87,0.00,,,0.00,Wunderground v.1.15,2013-03-12 01:45:00,
2013-03-11 21:55:00,49.6,46.2,30.07,South,183,2.0,4.0,88,0.00,,,0.00,Wunderground v.1.15,2013-03-12 01:55:00,
2013-03-11 22:05:00,49.8,46.4,30.07,South,178,2.0,3.0,88,0.00,,,0.00,Wunderground v.1.15,2013-03-12 02:05:00,
2013-03-11 22:15:00,49.9,46.5,30.07,ESE,123,3.0,3.0,88,0.00,,,0.00,Wunderground v.1.15,2013-03-12 02:15:00,
2013-03-11 22:25:00,49.8,46.4,30.06,SSE,168,3.0,4.0,88,0.00,,,0.00,Wunderground v.1.15,2013-03-12 02:25:00,
2013-03-11 22:35:00,50.1,47.0,30.06,SSE,167,3.0,4.0,89,0.00,,,0.00,Wunderground v.1.15,2013-03-12 02:35:00,
2013-03-11 22:45:00,50.2,47.1,30.06,SW,219,3.0,5.0,89,0.00,,,0.00,Wunderground v.1.15,2013-03-12 02:45:00,
2013-03-11 22:55:00,50.2,47.1,30.06,SSW,205,3.0,5.0,89,0.00,,,0.00,Wunderground v.1.15,2013-03-12 02:55:00,
2013-03-11 23:05:00,50.2,46.8,30.05,SW,222,2.0,3.0,88,0.00,,,0.00,Wunderground v.1.15,2013-03-12 03:05:00,
2013-03-11 23:15:00,50.2,47.1,30.05,SSW,205,3.0,3.0,89,0.00,,,0.00,Wunderground v.1.15,2013-03-12 03:15:00,
2013-03-11 23:25:00,50.2,46.8,30.05,SSE,161,3.0,5.0,88,0.00,,,0.00,Wunderground v.1.15,2013-03-12 03:25:00,
2013-03-11 23:35:00,50.4,47.0,30.06,SW,219,3.0,3.0,88,0.00,,,0.00,Wunderground v.1.15,2013-03-12 03:35:00,
2013-03-11 23:45:00,50.4,47.0,30.06,SSW,209,2.0,2.0,88,0.00,,,0.00,Wunderground v.1.15,2013-03-12 03:45:00,
2013-03-11 23:55:00,50.4,47.0,30.06,SW,217,2.0,6.0,88,0.00,,,0.00,Wunderground v.1.15,2013-03-12 03:55:00,